Time;durP1;ratioP1;P1;durP2;ratioP2;P2;SDS_P1;SDS_P2;PMS_P1;PMS_P2;Temp;Humidity;BMP_temperature;BMP_pressure;BME280_temperature;BME280_humidity;BME280_pressure;Samples;Min_cycle;Max_cycle;Signal;HPM_P1;HPM_P2
2023/09/26 00:02:16;;;;;;;6.78;0.38;;;14.30;99.90;;;;;;5125380;27;20069;-72
2023/09/26 00:04:42;;;;;;;0.05;0.05;;;14.30;99.90;;;;;;5127787;27;20130;-72
2023/09/26 00:07:08;;;;;;;0.25;0.20;;;14.30;28.40;;;;;;5129165;27;20066;-72
2023/09/26 00:09:35;;;;;;;0.10;0.10;;;14.30;60.30;;;;;;5127873;27;20439;-71
2023/09/26 00:12:02;;;;;;;0.22;0.10;;;14.30;1.00;;;;;;5125486;27;20031;-72
2023/09/26 00:14:28;;;;;;;0.03;0.03;;;14.20;99.90;;;;;;5124409;27;20492;-72
2023/09/26 00:16:53;;;;;;;0.00;0.00;;;14.20;99.90;;;;;;5127652;27;20043;-72
2023/09/26 00:19:19;;;;;;;0.20;0.10;;;14.30;99.90;;;;;;5128443;27;20042;-72
2023/09/26 00:21:44;;;;;;;0.70;0.52;;;14.30;1.00;;;;;;5125986;27;20046;-72
2023/09/26 00:24:10;;;;;;;0.50;0.30;;;14.30;1.00;;;;;;5125247;27;20036;-72
2023/09/26 00:26:36;;;;;;;0.08;0.08;;;14.30;99.90;;;;;;5124349;27;20446;-71
2023/09/26 00:29:02;;;;;;;0.00;0.00;;;14.40;99.90;;;;;;5127584;27;20480;-71
2023/09/26 00:31:27;;;;;;;2.75;0.47;;;14.40;90.30;;;;;;5128082;27;20526;-72
2023/09/26 00:33:53;;;;;;;0.10;0.10;;;14.50;99.90;;;;;;5126622;27;20047;-72
2023/09/26 00:36:18;;;;;;;0.13;0.13;;;14.40;99.90;;;;;;5124677;27;20039;-72
2023/09/26 00:38:44;;;;;;;1.77;1.27;;;14.40;99.90;;;;;;5122996;27;20045;-71
2023/09/26 00:41:10;;;;;;;0.00;0.00;;;14.30;99.90;;;;;;5125905;27;20050;-71
2023/09/26 00:43:35;;;;;;;0.00;0.00;;;14.30;99.90;;;;;;5124273;27;20074;-71
2023/09/26 00:46:04;;;;;;;1.33;1.08;;;14.20;99.90;;;;;;5127734;27;20103;-72
2023/09/26 00:48:30;;;;;;;0.45;0.25;;;14.20;99.90;;;;;;5124406;27;20055;-72
2023/09/26 00:50:56;;;;;;;0.10;0.10;;;14.10;99.90;;;;;;5124272;27;20043;-72
2023/09/26 00:53:24;;;;;;;2.25;1.15;;;14.10;99.90;;;;;;5124618;27;20043;-72
2023/09/26 00:55:53;;;;;;;0.00;0.00;;;14.10;59.20;;;;;;5127435;27;20075;-72
2023/09/26 00:58:22;;;;;;;0.05;0.03;;;14.10;99.90;;;;;;5126588;27;20050;-72
2023/09/26 01:00:51;;;;;;;0.00;0.00;;;14.60;99.90;;;;;;5119895;27;20054;-72
2023/09/26 01:03:16;;;;;;;0.22;0.20;;;14.10;62.10;;;;;;5116108;27;20131;-72
2023/09/26 01:05:42;;;;;;;0.00;0.00;;;14.10;51.40;;;;;;5108526;27;20124;-72
2023/09/26 01:08:08;;;;;;;0.00;0.00;;;14.10;1.00;;;;;;5118218;27;20040;-72
2023/09/26 01:10:36;;;;;;;0.08;0.08;;;14.10;1.00;;;;;;5125088;27;20040;-72
2023/09/26 01:13:02;;;;;;;0.00;0.00;;;14.30;1.00;;;;;;5121993;27;20044;-72
2023/09/26 01:15:32;;;;;;;0.22;0.17;;;14.20;99.90;;;;;;5124284;27;20410;-72
2023/09/26 01:17:57;;;;;;;1.35;0.68;;;14.20;99.90;;;;;;5121159;27;20043;-71
2023/09/26 01:20:24;;;;;;;0.35;0.22;;;14.30;27.90;;;;;;5123645;27;20404;-72
2023/09/26 01:22:52;;;;;;;0.00;0.00;;;14.20;1.00;;;;;;5122899;27;20047;-72
2023/09/26 01:25:18;;;;;;;0.00;0.00;;;14.30;1.00;;;;;;5123790;27;20032;-74
2023/09/26 01:27:44;;;;;;;0.20;0.13;;;14.30;1.00;;;;;;5124116;27;20084;-74
2023/09/26 01:30:11;;;;;;;0.15;0.15;;;14.30;99.90;;;;;;5115226;27;20087;-73
2023/09/26 01:32:36;;;;;;;0.05;0.05;;;14.30;99.90;;;;;;5123660;27;20421;-74
2023/09/26 01:35:02;;;;;;;0.25;0.20;;;14.30;99.90;;;;;;5122494;27;20096;-73
2023/09/26 01:37:28;;;;;;;0.00;0.00;;;14.30;99.90;;;;;;5123243;27;20487;-73
2023/09/26 01:39:53;;;;;;;0.00;0.00;;;14.20;99.90;;;;;;5126851;27;20031;-73
2023/09/26 01:42:19;;;;;;;0.35;0.32;;;14.10;99.90;;;;;;5123720;27;20434;-73
2023/09/26 01:44:44;;;;;;;0.13;0.10;;;14.10;99.90;;;;;;5122631;27;20036;-74
2023/09/26 01:47:25;;;;;;;0.00;0.00;;;14.40;99.90;;;;;;5124833;27;20055;-73
2023/09/26 01:49:50;;;;;;;1.75;0.20;;;14.10;99.90;;;;;;5126785;27;20035;-73
2023/09/26 01:52:16;;;;;;;0.40;0.25;;;14.10;99.90;;;;;;5125076;27;20058;-73
2023/09/26 01:54:41;;;;;;;0.10;0.10;;;14.20;99.90;;;;;;5122632;27;20492;-73
2023/09/26 01:57:07;;;;;;;0.10;0.03;;;14.20;99.90;;;;;;5123291;27;20565;-73
2023/09/26 01:59:33;;;;;;;0.50;0.25;;;14.20;92.00;;;;;;5125517;27;20036;-72
2023/09/26 02:02:02;;;;;;;0.00;0.00;;;14.20;74.20;;;;;;5126143;27;20480;-73
2023/09/26 02:04:28;;;;;;;0.75;0.55;;;14.20;1.00;;;;;;5126042;27;20415;-73
2023/09/26 02:06:53;;;;;;;0.40;0.40;;;14.30;1.00;;;;;;5122972;27;20036;-74
2023/09/26 02:09:19;;;;;;;0.93;0.50;;;14.30;99.90;;;;;;5116313;27;20051;-74
2023/09/26 02:11:44;;;;;;;0.13;0.10;;;14.30;99.90;;;;;;5123620;27;20540;-74
2023/09/26 02:14:10;;;;;;;0.65;0.30;;;14.30;99.90;;;;;;5119757;27;20038;-73
2023/09/26 02:16:36;;;;;;;0.32;0.20;;;14.30;99.90;;;;;;5125830;27;20045;-73
2023/09/26 02:19:02;;;;;;;0.03;0.03;;;14.20;99.90;;;;;;5121988;27;20396;-73
2023/09/26 02:21:27;;;;;;;0.32;0.30;;;14.30;99.90;;;;;;5122908;27;20039;-73
2023/09/26 02:23:53;;;;;;;0.82;0.63;;;14.30;99.90;;;;;;5129823;27;20058;-73
2023/09/26 02:26:19;;;;;;;0.20;0.20;;;14.30;99.90;;;;;;5122636;27;20080;-73
2023/09/26 02:28:44;;;;;;;0.00;0.00;;;14.30;99.90;;;;;;5122634;27;20032;-74
2023/09/26 02:31:16;;;;;;;0.20;0.20;;;14.30;97.80;;;;;;5125842;27;20043;-73
2023/09/26 02:33:42;;;;;;;0.00;0.00;;;14.30;99.90;;;;;;5125145;27;20043;-74
2023/09/26 02:36:07;;;;;;;0.00;0.00;;;14.20;99.90;;;;;;5123468;28;20424;-74
2023/09/26 02:38:33;;;;;;;0.00;0.00;;;14.20;53.30;;;;;;5122423;28;20416;-73
2023/09/26 02:40:59;;;;;;;0.52;0.52;;;14.00;78.70;;;;;;5122350;28;20040;-74
2023/09/26 02:43:25;;;;;;;0.55;0.40;;;13.90;90.90;;;;;;5122179;28;20451;-73
2023/09/26 02:45:51;;;;;;;0.75;0.10;;;14.20;99.90;;;;;;5125254;27;20040;-73
2023/09/26 02:48:16;;;;;;;0.20;0.17;;;13.70;99.90;;;;;;5135496;27;20043;-73
2023/09/26 02:50:45;;;;;;;0.32;0.25;;;13.70;99.90;;;;;;5126896;27;20035;-73
2023/09/26 02:53:11;;;;;;;0.10;0.10;;;13.60;99.90;;;;;;5126080;27;20048;-73
2023/09/26 02:55:40;;;;;;;0.17;0.17;;;13.70;99.90;;;;;;5130323;27;20043;-73
2023/09/26 02:58:06;;;;;;;0.00;0.00;;;13.60;99.90;;;;;;5129739;27;20054;-73
2023/09/26 03:00:32;;;;;;;0.30;0.30;;;13.60;99.90;;;;;;5127646;27;20043;-73
2023/09/26 03:02:57;;;;;;;0.00;0.00;;;13.50;99.90;;;;;;5104981;28;20040;-73
2023/09/26 03:05:23;;;;;;;0.00;0.00;;;13.40;99.90;;;;;;5124060;27;20568;-73
2023/09/26 03:07:48;;;;;;;0.57;0.57;;;13.30;99.90;;;;;;5129952;27;20122;-73
2023/09/26 03:10:14;;;;;;;0.22;0.22;;;13.10;99.90;;;;;;5129478;27;20175;-73
2023/09/26 03:12:46;;;;;;;1.48;0.63;;;12.90;99.90;;;;;;5120695;27;20042;-73
2023/09/26 03:15:12;;;;;;;0.30;0.30;;;12.80;99.90;;;;;;5123683;27;20481;-73
2023/09/26 03:17:38;;;;;;;0.55;0.55;;;12.50;99.90;;;;;;5127087;27;20046;-73
2023/09/26 03:20:04;;;;;;;0.20;0.20;;;12.40;99.90;;;;;;5129540;27;20426;-73
2023/09/26 03:22:29;;;;;;;0.30;0.22;;;12.20;99.90;;;;;;5128181;27;20409;-73
2023/09/26 03:24:55;;;;;;;0.20;0.10;;;12.10;99.90;;;;;;5127674;27;20045;-73
2023/09/26 03:27:21;;;;;;;0.03;0.03;;;12.00;99.90;;;;;;5126454;27;20039;-73
2023/09/26 03:29:49;;;;;;;0.10;0.10;;;12.00;1.00;;;;;;5126717;27;20081;-73
2023/09/26 03:32:15;;;;;;;0.03;0.03;;;11.90;1.00;;;;;;5128605;27;20042;-73
2023/09/26 03:34:41;;;;;;;0.00;0.00;;;11.90;26.10;;;;;;5129172;27;20039;-73
2023/09/26 03:37:07;;;;;;;0.08;0.08;;;11.70;1.00;;;;;;5126835;27;20488;-73
2023/09/26 03:39:32;;;;;;;1.35;0.20;;;11.60;81.50;;;;;;5126202;27;20043;-73
2023/09/26 03:41:58;;;;;;;0.10;0.10;;;11.40;1.00;;;;;;5125539;27;20225;-73
2023/09/26 03:44:23;;;;;;;0.10;0.10;;;11.40;99.90;;;;;;5122757;27;20121;-74
2023/09/26 03:46:49;;;;;;;0.43;0.20;;;11.50;1.00;;;;;;5128983;27;20042;-73
2023/09/26 03:49:14;;;;;;;0.22;0.22;;;11.30;1.00;;;;;;5127588;27;20536;-73
2023/09/26 03:51:40;;;;;;;0.10;0.10;;;11.30;1.00;;;;;;5123515;27;20132;-73
2023/09/26 03:54:06;;;;;;;0.45;0.38;;;11.10;91.50;;;;;;5125592;27;20130;-73
2023/09/26 03:56:31;;;;;;;0.57;0.30;;;11.10;99.90;;;;;;5128307;27;20046;-73
2023/09/26 03:58:57;;;;;;;1.15;0.45;;;11.30;99.90;;;;;;5128707;27;20096;-73
2023/09/26 04:01:23;;;;;;;0.35;0.20;;;10.90;99.90;;;;;;5127503;27;20453;-73
2023/09/26 04:03:48;;;;;;;0.03;0.03;;;10.80;99.90;;;;;;5125087;27;20119;-73
2023/09/26 04:06:15;;;;;;;1.48;1.33;;;10.90;99.90;;;;;;5133253;27;20116;-73
2023/09/26 04:08:41;;;;;;;1.35;0.55;;;10.80;99.90;;;;;;5128787;27;20058;-73
2023/09/26 04:11:13;;;;;;;2.25;1.08;;;10.80;1.00;;;;;;5127149;27;20035;-73
2023/09/26 04:13:38;;;;;;;1.08;0.63;;;10.80;1.00;;;;;;5126393;27;20077;-73
2023/09/26 04:16:05;;;;;;;0.70;0.40;;;10.70;1.00;;;;;;5125250;27;20063;-73
2023/09/26 04:18:31;;;;;;;0.43;0.43;;;10.60;1.00;;;;;;5116837;28;20123;-73
2023/09/26 04:21:00;;;;;;;0.90;0.75;;;10.60;1.00;;;;;;5127926;27;20134;-73
2023/09/26 04:23:27;;;;;;;1.70;0.98;;;11.60;1.00;;;;;;5127816;27;20043;-73
2023/09/26 04:25:53;;;;;;;0.65;0.25;;;10.60;22.90;;;;;;5127077;27;20093;-73
2023/09/26 04:28:19;;;;;;;0.75;0.75;;;10.60;69.40;;;;;;5128209;27;20035;-73
2023/09/26 04:30:45;;;;;;;1.55;0.98;;;10.50;97.90;;;;;;5127980;27;20069;-73
2023/09/26 04:33:10;;;;;;;1.17;0.82;;;10.40;99.90;;;;;;5120916;27;20042;-73
2023/09/26 04:35:36;;;;;;;0.85;0.68;;;10.40;99.90;;;;;;5124749;27;20036;-73
2023/09/26 04:38:02;;;;;;;0.60;0.28;;;10.40;99.90;;;;;;5124955;27;20040;-73
2023/09/26 04:40:28;;;;;;;0.82;0.45;;;10.40;99.90;;;;;;5128545;27;20035;-73
2023/09/26 04:42:58;;;;;;;0.20;0.20;;;10.30;99.90;;;;;;5127107;27;20046;-73
2023/09/26 04:45:24;;;;;;;0.10;0.10;;;10.30;99.90;;;;;;5116591;27;20118;-73
2023/09/26 04:47:49;;;;;;;0.10;0.10;;;10.20;99.90;;;;;;5124820;27;20071;-73
2023/09/26 04:50:15;;;;;;;0.20;0.20;;;10.10;99.90;;;;;;5125059;27;20043;-73
2023/09/26 04:52:40;;;;;;;0.20;0.20;;;10.10;99.90;;;;;;5127318;27;20130;-72
2023/09/26 04:55:06;;;;;;;1.05;0.47;;;10.10;99.90;;;;;;5127734;27;20054;-73
2023/09/26 04:57:32;;;;;;;0.80;0.65;;;10.20;99.90;;;;;;5125006;27;20082;-72
2023/09/26 04:59:57;;;;;;;0.20;0.20;;;10.20;99.90;;;;;;5123597;27;20162;-73
2023/09/26 05:02:23;;;;;;;0.95;0.82;;;10.30;99.90;;;;;;5125552;27;20055;-73
2023/09/26 05:04:48;;;;;;;0.00;0.00;;;10.20;99.90;;;;;;5127653;27;20043;-73
2023/09/26 05:07:16;;;;;;;0.40;0.38;;;10.30;99.90;;;;;;5124253;27;20032;-72
2023/09/26 05:09:41;;;;;;;0.75;0.70;;;10.20;99.90;;;;;;5124655;27;20039;-73
2023/09/26 05:12:07;;;;;;;1.05;0.85;;;10.10;99.90;;;;;;5124102;27;20039;-73
2023/09/26 05:14:32;;;;;;;0.17;0.17;;;10.10;99.90;;;;;;5124673;27;20395;-73
2023/09/26 05:16:58;;;;;;;0.15;0.15;;;10.00;99.90;;;;;;5126959;27;20179;-73
2023/09/26 05:19:24;;;;;;;0.22;0.22;;;10.00;99.90;;;;;;5123778;27;20031;-73
2023/09/26 05:21:49;;;;;;;0.20;0.20;;;10.00;99.90;;;;;;5125796;27;20095;-73
2023/09/26 05:24:15;;;;;;;1.95;1.27;;;10.10;99.90;;;;;;5123829;27;20130;-73
2023/09/26 05:26:41;;;;;;;0.22;0.22;;;10.20;99.90;;;;;;5126246;27;20412;-73
2023/09/26 05:29:06;;;;;;;0.55;0.52;;;10.70;99.90;;;;;;5130021;27;20036;-73
2023/09/26 05:31:32;;;;;;;1.27;0.63;;;10.30;99.90;;;;;;5124993;27;20526;-73
2023/09/26 05:33:58;;;;;;;0.28;0.28;;;10.30;99.90;;;;;;5123653;27;20036;-73
2023/09/26 05:36:24;;;;;;;0.35;0.35;;;10.20;99.90;;;;;;5123789;27;20054;-73
2023/09/26 05:38:50;;;;;;;0.90;0.57;;;10.20;99.90;;;;;;5125641;27;20047;-73
2023/09/26 05:41:15;;;;;;;1.60;0.95;;;11.10;99.90;;;;;;5125920;27;20350;-73
2023/09/26 05:43:41;;;;;;;0.03;0.03;;;10.30;99.90;;;;;;5126630;27;20533;-74
2023/09/26 05:46:07;;;;;;;0.52;0.52;;;10.40;99.90;;;;;;5123480;27;20032;-73
2023/09/26 05:48:33;;;;;;;0.28;0.17;;;10.40;99.90;;;;;;5130173;27;20488;-73
2023/09/26 05:51:00;;;;;;;0.85;0.75;;;10.50;99.90;;;;;;5124874;27;20385;-73
2023/09/26 05:53:26;;;;;;;0.35;0.35;;;10.60;99.90;;;;;;5123260;27;20040;-73
2023/09/26 05:55:52;;;;;;;0.57;0.57;;;10.60;99.90;;;;;;5132405;27;20055;-73
2023/09/26 05:58:20;;;;;;;0.82;0.65;;;10.60;99.90;;;;;;5124597;27;20396;-73
2023/09/26 06:00:49;;;;;;;0.17;0.17;;;10.60;99.90;;;;;;5123528;27;20100;-73
2023/09/26 06:03:15;;;;;;;4.47;2.40;;;10.60;99.90;;;;;;5125346;27;20127;-73
2023/09/26 06:05:42;;;;;;;1.02;0.93;;;10.60;99.90;;;;;;5127077;27;20124;-73
2023/09/26 06:08:08;;;;;;;0.28;0.28;;;10.60;99.90;;;;;;5126381;27;20043;-73
2023/09/26 06:10:34;;;;;;;1.77;0.90;;;10.60;99.90;;;;;;5115697;27;20516;-73
2023/09/26 06:13:00;;;;;;;0.77;0.55;;;10.60;99.90;;;;;;5123577;27;20118;-73
2023/09/26 06:15:25;;;;;;;0.47;0.32;;;10.90;99.90;;;;;;5124022;27;20442;-73
2023/09/26 06:18:01;;;;;;;4.32;0.77;;;10.80;99.90;;;;;;5123513;27;20040;-73
2023/09/26 06:20:28;;;;;;;0.68;0.47;;;10.80;99.90;;;;;;5131364;27;20092;-73
2023/09/26 06:22:54;;;;;;;0.57;0.57;;;10.80;99.90;;;;;;5123090;27;20035;-73
2023/09/26 06:25:22;;;;;;;0.38;0.35;;;10.90;99.90;;;;;;5117038;27;20071;-73
2023/09/26 06:27:48;;;;;;;1.27;0.75;;;11.00;99.90;;;;;;5123771;27;20047;-73
2023/09/26 06:30:14;;;;;;;1.35;0.80;;;11.10;99.90;;;;;;5122578;28;20382;-73
2023/09/26 06:32:40;;;;;;;0.28;0.20;;;11.20;99.90;;;;;;5122819;27;20042;-73
2023/09/26 06:35:06;;;;;;;1.75;1.17;;;11.40;99.90;;;;;;5124904;27;20092;-73
2023/09/26 06:37:32;;;;;;;0.85;0.47;;;11.50;99.90;;;;;;5124970;28;20035;-73
2023/09/26 06:40:00;;;;;;;2.63;0.73;;;11.80;99.90;;;;;;5121914;28;20047;-73
2023/09/26 06:42:26;;;;;;;0.38;0.25;;;11.80;99.90;;;;;;5120828;28;20067;-73
2023/09/26 06:44:52;;;;;;;0.30;0.30;;;11.90;99.90;;;;;;5123087;28;20043;-73
2023/09/26 06:47:18;;;;;;;6.60;0.22;;;12.00;99.90;;;;;;5122951;27;20087;-73
2023/09/26 06:49:43;;;;;;;0.55;0.45;;;13.40;99.90;;;;;;5121690;27;20402;-73
2023/09/26 06:52:09;;;;;;;2.15;0.50;;;12.30;99.90;;;;;;5117819;28;20063;-73
2023/09/26 06:54:36;;;;;;;0.43;0.43;;;12.50;99.90;;;;;;5118649;28;20035;-73
2023/09/26 06:57:01;;;;;;;2.15;0.52;;;12.70;99.90;;;;;;5118949;27;20551;-73
2023/09/26 06:59:27;;;;;;;0.15;0.15;;;12.80;99.90;;;;;;5121991;28;20036;-73
2023/09/26 07:01:52;;;;;;;0.40;0.40;;;13.00;99.90;;;;;;5120981;28;20051;-73
2023/09/26 07:04:18;;;;;;;0.93;0.35;;;13.10;65.60;;;;;;5117684;28;20599;-73
2023/09/26 07:06:45;;;;;;;0.55;0.28;;;13.30;99.90;;;;;;5118692;27;20141;-73
2023/09/26 07:09:12;;;;;;;0.20;0.20;;;13.50;99.90;;;;;;5118956;28;20410;-74
2023/09/26 07:11:39;;;;;;;0.17;0.17;;;13.70;99.90;;;;;;5120632;27;20043;-74
2023/09/26 07:14:05;;;;;;;0.20;0.15;;;14.10;99.90;;;;;;5121665;27;20051;-74
2023/09/26 07:16:33;;;;;;;0.52;0.47;;;14.30;1.00;;;;;;5119253;28;20035;-74
2023/09/26 07:18:59;;;;;;;0.77;0.40;;;14.50;99.90;;;;;;5118232;28;20419;-74
2023/09/26 07:21:25;;;;;;;0.75;0.70;;;14.80;82.70;;;;;;5117058;28;20044;-74
2023/09/26 07:23:51;;;;;;;0.10;0.10;;;15.10;24.50;;;;;;5117972;28;20040;-74
2023/09/26 07:26:17;;;;;;;0.00;0.00;;;15.60;99.90;;;;;;5110699;28;20029;-74
2023/09/26 07:28:47;;;;;;;0.20;0.20;;;15.60;1.00;;;;;;5119324;28;20088;-74
2023/09/26 07:31:14;;;;;;;0.20;0.20;;;15.80;1.00;;;;;;5122137;27;20031;-73
2023/09/26 07:33:40;;;;;;;0.10;0.10;;;16.00;1.00;;;;;;5123517;27;20537;-73
2023/09/26 07:36:06;;;;;;;1.13;0.88;;;16.20;77.70;;;;;;5122101;27;20043;-74
2023/09/26 07:38:32;;;;;;;0.00;0.00;;;16.30;99.90;;;;;;5110887;27;20047;-74
2023/09/26 07:41:00;;;;;;;0.65;0.55;;;16.40;99.90;;;;;;5123737;27;20043;-74
2023/09/26 07:43:29;;;;;;;0.10;0.10;;;16.50;99.90;;;;;;5124510;27;20404;-73
2023/09/26 07:46:05;;;;;;;0.25;0.25;;;16.50;81.00;;;;;;5119848;27;20493;-73
2023/09/26 07:48:32;;;;;;;1.45;1.13;;;16.70;32.20;;;;;;5124731;27;20350;-73
2023/09/26 07:50:58;;;;;;;0.43;0.30;;;16.70;41.50;;;;;;5123388;27;20035;-73
2023/09/26 07:53:24;;;;;;;0.25;0.20;;;16.70;11.40;;;;;;5120725;27;20442;-74
2023/09/26 07:55:49;;;;;;;2.08;0.77;;;16.90;99.90;;;;;;5124780;27;20043;-73
2023/09/26 07:58:16;;;;;;;1.23;0.30;;;17.10;99.90;;;;;;5121735;27;20046;-73
2023/09/26 08:00:42;;;;;;;0.30;0.30;;;17.30;99.20;;;;;;5119995;27;20126;-73
2023/09/26 08:03:08;;;;;;;0.32;0.30;;;17.60;99.90;;;;;;5120515;27;20050;-73
2023/09/26 08:05:33;;;;;;;0.52;0.52;;;17.80;62.10;;;;;;5124312;27;20509;-73
2023/09/26 08:08:03;;;;;;;2.17;0.50;;;17.90;37.90;;;;;;5124090;27;20126;-74
2023/09/26 08:10:29;;;;;;;0.93;0.65;;;17.70;1.00;;;;;;5121423;27;20063;-73
2023/09/26 08:12:54;;;;;;;2.42;1.23;;;17.90;1.00;;;;;;5120108;27;20055;-73
2023/09/26 08:15:20;;;;;;;0.57;0.57;;;18.30;1.00;;;;;;5122238;27;20116;-73
2023/09/26 08:17:45;;;;;;;0.13;0.10;;;18.30;1.00;;;;;;5124522;27;20039;-73
2023/09/26 08:20:11;;;;;;;0.40;0.40;;;18.20;1.00;;;;;;5123919;27;20046;-73
2023/09/26 08:22:38;;;;;;;0.35;0.28;;;18.40;1.00;;;;;;5106237;27;20048;-73
2023/09/26 08:25:04;;;;;;;0.30;0.30;;;18.50;1.00;;;;;;5124328;27;20043;-73
2023/09/26 08:27:31;;;;;;;0.63;0.60;;;18.60;1.00;;;;;;5123219;27;20480;-73
2023/09/26 08:29:59;;;;;;;0.43;0.40;;;18.70;1.00;;;;;;5120994;27;20135;-73
2023/09/26 08:32:25;;;;;;;0.55;0.35;;;18.70;1.00;;;;;;5121997;27;20121;-74
2023/09/26 08:34:51;;;;;;;0.30;0.30;;;18.70;1.00;;;;;;5121336;27;20043;-73
2023/09/26 08:37:16;;;;;;;1.17;0.40;;;18.80;1.00;;;;;;5120598;27;20044;-74
2023/09/26 08:39:43;;;;;;;1.20;0.85;;;18.90;1.00;;;;;;5121669;27;20039;-74
2023/09/26 08:42:17;;;;;;;0.40;0.28;;;19.00;1.00;;;;;;5122157;27;20432;-74
2023/09/26 08:44:43;;;;;;;1.88;0.85;;;19.10;1.00;;;;;;5123390;27;20385;-73
2023/09/26 08:47:09;;;;;;;0.10;0.10;;;19.20;1.00;;;;;;5120111;27;20047;-73
2023/09/26 08:49:38;;;;;;;2.83;0.70;;;19.20;1.00;;;;;;5119963;27;20039;-73
2023/09/26 08:52:04;;;;;;;2.40;1.10;;;19.20;1.00;;;;;;5122007;27;20067;-73
2023/09/26 08:54:30;;;;;;;0.10;0.10;;;19.30;1.00;;;;;;5123256;27;20049;-74
2023/09/26 08:56:57;;;;;;;0.35;0.20;;;19.40;1.00;;;;;;5122826;27;20035;-74
2023/09/26 08:59:23;;;;;;;0.20;0.20;;;19.50;1.00;;;;;;5120126;27;20067;-74
2023/09/26 09:01:50;;;;;;;0.65;0.45;;;19.60;1.00;;;;;;5123891;27;20503;-74
2023/09/26 09:04:18;;;;;;;2.42;1.25;;;19.50;1.00;;;;;;5118633;27;20047;-73
2023/09/26 09:06:44;;;;;;;3.25;1.30;;;19.50;1.00;;;;;;5118374;27;20444;-74
2023/09/26 09:09:10;;;;;;;0.80;0.73;;;19.40;1.00;;;;;;5118995;27;20114;-74
2023/09/26 09:11:35;;;;;;;2.05;1.05;;;19.50;1.00;;;;;;5121055;27;20039;-74
2023/09/26 09:14:01;;;;;;;0.28;0.28;;;19.70;1.00;;;;;;5122057;27;20043;-74
2023/09/26 09:16:26;;;;;;;0.38;0.30;;;19.90;1.00;;;;;;5119704;27;20035;-74
2023/09/26 09:18:58;;;;;;;1.75;0.90;;;20.10;1.00;;;;;;5118381;27;20742;-74
2023/09/26 09:21:25;;;;;;;0.45;0.45;;;20.30;1.00;;;;;;5119844;27;20126;-74
2023/09/26 09:23:52;;;;;;;0.17;0.17;;;20.40;1.00;;;;;;5122884;27;20058;-74
2023/09/26 09:26:21;;;;;;;0.45;0.45;;;20.40;99.90;;;;;;5123366;27;20039;-74
2023/09/26 09:28:50;;;;;;;0.60;0.60;;;20.40;99.90;;;;;;5119665;27;20039;-74
2023/09/26 09:31:16;;;;;;;0.90;0.55;;;20.70;1.00;;;;;;5119138;27;20088;-74
2023/09/26 09:33:56;;;;;;;0.38;0.30;;;21.40;1.00;;;;;;5121305;27;20458;-74
2023/09/26 09:36:22;;;;;;;1.77;0.63;;;22.40;1.00;;;;;;5123079;27;20070;-74
2023/09/26 09:38:48;;;;;;;0.38;0.30;;;22.80;1.00;;;;;;5120905;27;20097;-74
2023/09/26 09:41:13;;;;;;;0.65;0.45;;;22.80;1.00;;;;;;5118506;27;20521;-74
2023/09/26 09:43:39;;;;;;;1.50;0.95;;;21.70;99.90;;;;;;5118964;27;20035;-74
2023/09/26 09:46:08;;;;;;;1.63;0.93;;;21.30;99.90;;;;;;5117516;27;20039;-74
2023/09/26 09:48:45;;;;;;;1.30;0.70;;;21.40;99.90;;;;;;5122574;27;20046;-74
2023/09/26 09:51:13;;;;;;;13.20;0.82;;;21.50;99.90;;;;;;5110132;27;20435;-74
2023/09/26 09:53:42;;;;;;;0.10;0.10;;;21.70;99.90;;;;;;5118995;27;20048;-73
2023/09/26 09:56:09;;;;;;;0.40;0.40;;;22.10;99.90;;;;;;5121514;27;20584;-73
2023/09/26 09:58:44;;;;;;;0.50;0.47;;;22.60;99.90;;;;;;5122080;27;20049;-73
2023/09/26 10:01:13;;;;;;;0.30;0.30;;;22.20;99.90;;;;;;5120730;27;20035;-74
2023/09/26 10:03:38;;;;;;;0.43;0.43;;;21.80;99.90;;;;;;5122584;27;20106;-74
2023/09/26 10:06:09;;;;;;;0.60;0.52;;;22.00;99.90;;;;;;5122281;27;20450;-73
2023/09/26 10:08:37;;;;;;;3.80;0.52;;;21.50;99.90;;;;;;5118886;27;20110;-74
2023/09/26 10:11:05;;;;;;;0.32;0.30;;;22.00;99.90;;;;;;5118260;27;20484;-74
2023/09/26 10:13:30;;;;;;;0.65;0.55;;;22.40;99.90;;;;;;5119093;27;20057;-73
2023/09/26 10:16:06;;;;;;;1.98;0.70;;;22.30;99.90;;;;;;5118845;27;20548;-74
2023/09/26 10:18:43;;;;;;;1.50;0.95;;;22.80;99.90;;;;;;5121000;27;20131;-73
2023/09/26 10:21:27;;;;;;;0.20;0.20;;;22.20;99.90;;;;;;5116823;27;20036;-74
2023/09/26 10:24:08;;;;;;;5.43;1.33;;;22.30;99.90;;;;;;5111348;27;20464;-75
2023/09/26 10:26:38;;;;;;;0.28;0.28;;;22.30;99.90;;;;;;5118939;27;20574;-75
2023/09/26 10:29:06;;;;;;;1.23;0.88;;;22.30;99.90;;;;;;5122115;27;20035;-74
2023/09/26 10:31:33;;;;;;;2.47;1.10;;;22.00;99.90;;;;;;5115103;27;20447;-73
2023/09/26 10:33:59;;;;;;;0.43;0.38;;;21.50;99.90;;;;;;5121444;27;20057;-73
2023/09/26 10:36:24;;;;;;;4.60;0.70;;;21.00;99.90;;;;;;5121821;27;20396;-73
2023/09/26 10:39:06;;;;;;;1.85;0.32;;;21.20;99.90;;;;;;5119701;28;20039;-73
2023/09/26 10:41:32;;;;;;;0.65;0.47;;;21.90;99.90;;;;;;5117958;28;20084;-73
2023/09/26 10:43:59;;;;;;;0.55;0.55;;;22.20;99.90;;;;;;5108551;28;20055;-73
2023/09/26 10:46:25;;;;;;;0.80;0.65;;;22.40;99.90;;;;;;5120132;27;20047;-73
2023/09/26 10:48:51;;;;;;;1.85;0.45;;;22.10;99.90;;;;;;5121063;27;20051;-73
2023/09/26 10:51:19;;;;;;;1.45;0.70;;;22.70;99.90;;;;;;5117703;28;20467;-73
2023/09/26 10:53:46;;;;;;;0.20;0.20;;;22.90;99.90;;;;;;5119152;28;20400;-73
2023/09/26 10:56:13;;;;;;;0.25;0.22;;;22.60;99.90;;;;;;5124315;28;20484;-73
2023/09/26 10:58:40;;;;;;;0.30;0.30;;;22.50;99.90;;;;;;5124586;27;20121;-73
2023/09/26 11:01:08;;;;;;;0.25;0.25;;;22.30;99.90;;;;;;5114356;27;20498;-73
2023/09/26 11:03:34;;;;;;;0.15;0.15;;;22.50;99.90;;;;;;5124429;27;20078;-73
2023/09/26 11:06:01;;;;;;;1.38;0.68;;;22.80;99.90;;;;;;5125697;27;20067;-73
2023/09/26 11:08:27;;;;;;;0.63;0.63;;;22.30;99.90;;;;;;5125604;27;20088;-73
2023/09/26 11:10:53;;;;;;;0.70;0.70;;;22.50;99.90;;;;;;5123183;27;20039;-73
2023/09/26 11:13:22;;;;;;;1.55;0.50;;;22.30;99.90;;;;;;5127426;27;20118;-73
2023/09/26 11:15:52;;;;;;;0.60;0.38;;;22.40;99.90;;;;;;5125380;27;20487;-73
2023/09/26 11:18:18;;;;;;;0.00;0.00;;;22.20;99.90;;;;;;5125114;27;20091;-73
2023/09/26 11:20:43;;;;;;;0.22;0.20;;;22.00;99.90;;;;;;5128544;27;20038;-73
2023/09/26 11:23:09;;;;;;;0.60;0.43;;;22.00;99.90;;;;;;5128338;27;20062;-73
2023/09/26 11:25:34;;;;;;;0.52;0.43;;;21.80;99.90;;;;;;5126580;27;20039;-73
2023/09/26 11:28:01;;;;;;;0.50;0.50;;;21.70;99.90;;;;;;5124319;27;20039;-73
2023/09/26 11:30:28;;;;;;;0.10;0.10;;;21.90;99.90;;;;;;5125419;27;20042;-73
2023/09/26 11:32:54;;;;;;;3.40;1.40;;;21.90;99.90;;;;;;5128199;27;20035;-73
2023/09/26 11:35:21;;;;;;;0.55;0.38;;;21.90;99.90;;;;;;5128196;27;20445;-73
2023/09/26 11:37:53;;;;;;;2.30;1.48;;;21.80;99.90;;;;;;5125747;27;20401;-73
2023/09/26 11:40:27;;;;;;;0.73;0.50;;;22.30;99.90;;;;;;5128345;27;20427;-73
2023/09/26 11:42:55;;;;;;;0.75;0.40;;;22.40;99.90;;;;;;5126417;27;20043;-73
2023/09/26 11:45:22;;;;;;;0.93;0.55;;;22.60;99.90;;;;;;5120476;27;20048;-74
2023/09/26 11:47:47;;;;;;;0.08;0.08;;;22.80;99.90;;;;;;5131433;27;20039;-73
2023/09/26 11:50:13;;;;;;;0.40;0.25;;;22.80;99.90;;;;;;5125410;27;20047;-73
2023/09/26 11:52:40;;;;;;;0.10;0.10;;;22.70;99.90;;;;;;5124987;27;20050;-74
2023/09/26 11:55:06;;;;;;;0.80;0.43;;;23.00;99.90;;;;;;5126266;27;20050;-73
2023/09/26 11:57:35;;;;;;;0.35;0.35;;;22.60;99.90;;;;;;5128431;27;20114;-74
2023/09/26 12:00:03;;;;;;;0.35;0.32;;;22.50;99.90;;;;;;5127721;27;20042;-74
2023/09/26 12:02:28;;;;;;;0.30;0.30;;;22.60;99.90;;;;;;5125076;27;20075;-73
2023/09/26 12:04:54;;;;;;;0.40;0.13;;;22.40;99.90;;;;;;5124509;27;20047;-73
2023/09/26 12:07:20;;;;;;;0.00;0.00;;;22.70;99.90;;;;;;5127136;27;20401;-73
2023/09/26 12:09:45;;;;;;;0.40;0.30;;;22.80;99.90;;;;;;5128042;27;20484;-74
2023/09/26 12:12:11;;;;;;;0.20;0.20;;;22.80;99.90;;;;;;5127441;27;20035;-74
2023/09/26 12:14:37;;;;;;;0.63;0.45;;;23.30;99.90;;;;;;5123968;27;20121;-73
2023/09/26 12:17:04;;;;;;;0.28;0.28;;;23.40;99.90;;;;;;5124497;27;20535;-74
2023/09/26 12:19:29;;;;;;;0.00;0.00;;;23.00;99.90;;;;;;5126751;27;20039;-74
2023/09/26 12:21:55;;;;;;;0.20;0.20;;;22.90;99.90;;;;;;5127778;27;20047;-74
2023/09/26 12:24:21;;;;;;;0.77;0.50;;;23.40;99.90;;;;;;5132466;27;20043;-74
2023/09/26 12:26:47;;;;;;;0.30;0.30;;;23.80;99.90;;;;;;5124687;27;20039;-73
2023/09/26 12:29:15;;;;;;;1.00;0.28;;;24.10;99.90;;;;;;5124498;27;20603;-73
2023/09/26 12:31:43;;;;;;;1.15;0.50;;;24.20;99.90;;;;;;5126109;27;20173;-73
2023/09/26 12:34:09;;;;;;;0.20;0.20;;;24.20;99.90;;;;;;5127407;27;20454;-73
2023/09/26 12:36:35;;;;;;;0.47;0.32;;;24.00;99.90;;;;;;5127221;27;20032;-73
2023/09/26 12:39:01;;;;;;;0.20;0.20;;;24.10;99.90;;;;;;5124132;27;20043;-73
2023/09/26 12:41:26;;;;;;;0.65;0.30;;;24.20;99.90;;;;;;5124499;27;20040;-73
2023/09/26 12:43:52;;;;;;;1.08;0.57;;;24.10;99.90;;;;;;5121438;27;20043;-73
2023/09/26 12:46:18;;;;;;;0.10;0.10;;;24.10;99.90;;;;;;5127519;27;20042;-73